METAR Data
IDs: Format: Raw Decoded Include TAF

Data at: 0425 UTC 26 Sep 2018

KOKV 260415Z AUTO 20004KT 10SM CLR 20/19 A3010 RMK AO2
KOKV 260355Z AUTO 19005KT 10SM CLR 20/19 A3010 RMK AO2
KOKV 260335Z AUTO 23006KT 10SM CLR 20/19 A3010 RMK AO2
KOKV 260315Z AUTO 16003KT 10SM CLR 20/19 A3011 RMK AO2
KOKV 260255Z AUTO 00000KT 10SM CLR 20/19 A3012 RMK AO2
KOKV 260235Z AUTO 25003KT 10SM CLR 20/19 A3013 RMK AO2
KOKV 260215Z AUTO 28003KT 10SM CLR 19/18 A3013 RMK AO2
KOKV 260155Z AUTO 23003KT 10SM CLR 20/19 A3013 RMK AO2
KOKV 260135Z AUTO 16004KT 10SM CLR 20/19 A3013 RMK AO2
KOKV 260115Z AUTO 18004KT 10SM CLR 20/19 A3014 RMK AO2
KOKV 260055Z AUTO 21003KT 10SM CLR 20/19 A3014 RMK AO2
KOKV 260035Z AUTO 00000KT 10SM CLR 20/19 A3015 RMK AO2
KOKV 260015Z AUTO 19003KT 10SM CLR 20/20 A3013 RMK AO2 LTG DSNT NW
KOKV 252355Z AUTO 19003KT 10SM CLR 20/20 A3013 RMK AO2
KOKV 252335Z AUTO 17004KT 10SM -DZ CLR 21/20 A3014 RMK AO2
KOKV 252315Z AUTO 16004KT 10SM SCT085 21/20 A3015 RMK AO2
KOKV 252255Z AUTO 16003KT 10SM SCT085 BKN110 21/20 A3016 RMK AO2
KOKV 252235Z AUTO 15004KT 10SM SCT110 22/20 A3017 RMK AO2
KOKV 252215Z AUTO 16003KT 10SM CLR 22/20 A3017 RMK AO2
KOKV 252155Z AUTO 17004KT 10SM SCT090 22/20 A3017 RMK AO2
KOKV 252135Z AUTO 14006KT 10SM SCT075 BKN090 22/20 A3017 RMK AO2
KOKV 252115Z AUTO 17004KT 10SM SCT075 OVC100 22/20 A3017 RMK AO2
KOKV 252055Z AUTO 18004KT 10SM SCT075 BKN100 BKN120 22/20 A3017 RMK AO2
KOKV 252035Z AUTO 00000KT 10SM SCT014 BKN120 22/20 A3017 RMK AO2 LTG DSNT S
KOKV 252015Z AUTO 00000KT 10SM BKN012 BKN017 OVC120 21/20 A3018 RMK AO2
KOKV 251955Z AUTO 27004KT 10SM BKN014 OVC019 21/20 A3018 RMK AO2
KOKV 251935Z AUTO 00000KT 10SM BKN012 OVC017 21/20 A3019 RMK AO2
KOKV 251915Z AUTO 14004KT 10SM OVC010 21/20 A3020 RMK AO2
KOKV 251855Z AUTO 18003KT 10SM OVC010 21/19 A3020 RMK AO2
KOKV 251835Z AUTO 00000KT 10SM OVC008 21/19 A3020 RMK AO2
KOKV 251815Z AUTO 00000KT 10SM SCT008 BKN017 OVC070 21/19 A3020 RMK AO2
KOKV 251755Z AUTO 00000KT 10SM SCT008 SCT017 OVC070 20/18 A3022 RMK AO2
KOKV 251735Z AUTO 25003KT 10SM SCT008 SCT028 OVC070 20/18 A3022 RMK AO2
KOKV 251715Z AUTO 27004KT 10SM OVC008 20/18 A3024 RMK AO2
KOKV 251655Z AUTO 26004KT 10SM BKN006 BKN045 OVC080 20/18 A3024 RMK AO2
KOKV 251635Z AUTO 24005KT 10SM BKN006 BKN037 OVC080 19/18 A3024 RMK AO2
KOKV 251615Z AUTO 20003KT 10SM BKN004 BKN042 OVC080 18/18 A3025 RMK AO2
KOKV 251555Z AUTO 20003KT 10SM -RA BKN004 OVC080 18/17 A3025 RMK AO2 P0004
KOKV 251535Z AUTO 22004KT 7SM -RA OVC004 18/17 A3026 RMK AO2 P0003
KOKV 251515Z AUTO 19003KT 7SM -RA OVC004 17/17 A3026 RMK AO2 P0002
KOKV 251455Z AUTO 24003KT 5SM -RA OVC004 17/17 A3026 RMK AO2 P0001
KOKV 251435Z AUTO 24003KT 4SM -RA OVC002 17/17 A3027 RMK AO2 P0001
KOKV 251415Z AUTO 26003KT 4SM RA OVC002 17/16 A3027 RMK AO2
KOKV 251355Z AUTO 00000KT 3SM DZ OVC002 16/16 A3027 RMK AO2 P0001
KOKV 251335Z AUTO 00000KT 2SM RA OVC002 16/16 A3027 RMK AO2 LTG DSNT NW P0001
KOKV 251315Z AUTO 00000KT 2SM DZ OVC002 16/16 A3027 RMK AO2
KOKV 251255Z AUTO 00000KT 1 1/2SM RA OVC002 16/16 A3026 RMK AO2 P0001
KOKV 251235Z AUTO 00000KT 1 1/4SM DZ OVC002 16/16 A3027 RMK AO2 P0001
KOKV 251215Z AUTO 00000KT 3/4SM DZ OVC002 16/16 A3027 RMK AO2
KOKV 251155Z AUTO 00000KT 3/4SM DZ OVC002 16/16 A3027 RMK AO2
KOKV 251135Z AUTO 00000KT 1 1/4SM -RA OVC002 16/15 A3027 RMK AO2
KOKV 251115Z AUTO 00000KT 2SM RA OVC002 15/15 A3027 RMK AO2
KOKV 251055Z AUTO 00000KT 2 1/2SM BR OVC002 15/15 A3027 RMK AO2 LTG DSNT NW P0001
KOKV 251035Z AUTO 00000KT 2 1/2SM DZ OVC002 15/15 A3026 RMK AO2 P0001
KOKV 251015Z AUTO 00000KT 3SM -RA OVC002 15/15 A3026 RMK AO2
KOKV 250955Z AUTO 00000KT 3SM RA OVC002 15/15 A3026 RMK AO2 P0001
KOKV 250935Z AUTO 00000KT 4SM RA OVC002 15/15 A3027 RMK AO2 P0001
KOKV 250915Z AUTO 00000KT 4SM -RA OVC002 15/15 A3027 RMK AO2 P0001
KOKV 250855Z AUTO 00000KT 4SM -DZ OVC002 15/15 A3027 RMK AO2 P0001
KOKV 250835Z AUTO 00000KT 4SM -RA OVC002 15/15 A3028 RMK AO2 P0001
KOKV 250815Z AUTO 00000KT 3SM RA OVC002 15/15 A3028 RMK AO2
KOKV 250755Z AUTO 00000KT 5SM BR OVC002 16/15 A3028 RMK AO2
KOKV 250735Z AUTO 00000KT 7SM OVC004 16/15 A3028 RMK AO2
KOKV 250715Z AUTO 00000KT 5SM BR OVC004 16/15 A3029 RMK AO2
KOKV 250655Z AUTO 00000KT 4SM BR OVC004 15/15 A3030 RMK AO2 P0001
KOKV 250635Z AUTO 00000KT 4SM BR OVC004 15/15 A3030 RMK AO2 P0001
KOKV 250615Z AUTO 00000KT 4SM RA OVC004 15/15 A3031 RMK AO2 P0001
KOKV 250555Z AUTO 00000KT 4SM DZ OVC004 15/15 A3032 RMK AO2 P0001
KOKV 250535Z AUTO 00000KT 3SM DZ OVC004 15/15 A3032 RMK AO2 P0001
KOKV 250515Z AUTO 00000KT 4SM DZ BKN004 OVC014 15/15 A3032 RMK AO2 P0001
KOKV 250455Z AUTO 00000KT 5SM DZ OVC004 15/15 A3033 RMK AO2 P0001
KOKV 250435Z AUTO 00000KT 7SM -DZ OVC004 15/15 A3033 RMK AO2 P0001
KOKV 250415Z AUTO 00000KT 5SM RA BKN004 OVC007 15/15 A3034 RMK AO2
KOKV 250355Z AUTO 00000KT 5SM +DZ OVC004 15/15 A3035 RMK AO2
KOKV 250335Z AUTO 00000KT 3SM DZ OVC004 15/15 A3035 RMK AO2
KOKV 250315Z AUTO 00000KT 4SM -DZ OVC006 15/15 A3035 RMK AO2
KOKV 250255Z AUTO 03003KT 4SM +DZ BKN005 OVC010 15/15 A3035 RMK AO2 P0001
KOKV 250235Z AUTO 00000KT 4SM -RA BKN005 OVC008 15/15 A3035 RMK AO2 P0001
KOKV 250215Z AUTO 00000KT 4SM DZ BKN003 OVC010 15/15 A3035 RMK AO2
KOKV 250155Z AUTO 00000KT 3SM DZ BKN005 OVC009 15/15 A3035 RMK AO2 P0006
KOKV 250135Z AUTO 03003KT 3SM +DZ OVC005 15/15 A3035 RMK AO2 P0005
KOKV 250115Z AUTO 00000KT 3SM -RA OVC005 15/15 A3036 RMK AO2 P0004
KOKV 250055Z AUTO 00000KT 3SM DZ OVC005 15/15 A3036 RMK AO2 P0007
KOKV 250035Z AUTO 00000KT 3SM +RA BKN005 OVC009 15/15 A3036 RMK AO2 P0006
KOKV 250015Z AUTO 05003KT 3SM RA OVC009 15/15 A3035 RMK AO2 P0003
KOKV 242355Z AUTO 00000KT 4SM RA BKN004 OVC011 16/15 A3035 RMK AO2 P0001
KOKV 242335Z AUTO 08003KT 4SM DZ OVC004 16/15 A3035 RMK AO2 P0001
KOKV 242315Z AUTO 00000KT 4SM DZ BKN006 BKN010 OVC016 16/15 A3035 RMK AO2
KOKV 242255Z AUTO 10005KT 5SM -DZ SCT006 BKN014 OVC020 16/15 A3035 RMK AO2 P0001
KOKV 242235Z AUTO 09007KT 4SM DZ BKN006 BKN010 OVC020 16/16 A3034 RMK AO2 P0001
KOKV 242215Z AUTO 08006KT 2SM DZ OVC004 16/16 A3034 RMK AO2 P0001
KOKV 242155Z AUTO 00000KT 2 1/2SM RA OVC004 16/16 A3034 RMK AO2 P0006
KOKV 242135Z AUTO 08004KT 2 1/2SM -RA OVC004 16/16 A3034 RMK AO2 P0006
KOKV 242115Z AUTO 09005KT 2 1/2SM RA OVC004 16/16 A3034 RMK AO2 P0003
KOKV 242055Z AUTO 09005KT 2SM RA OVC004 16/16 A3034 RMK AO2 P0001
KOKV 242035Z AUTO 08006KT 1 1/2SM DZ OVC004 16/16 A3034 RMK AO2
KOKV 242015Z AUTO 08004KT 1 3/4SM DZ OVC006 16/16 A3034 RMK AO2
KOKV 241955Z AUTO 08003KT 5SM RA OVC006 16/16 A3034 RMK AO2 P0001
KOKV 241935Z AUTO 10006KT 4SM RA OVC006 16/16 A3034 RMK AO2
KOKV 241915Z AUTO 09004KT 3SM RA OVC006 16/16 A3035 RMK AO2
KOKV 241855Z AUTO 09004KT 2 1/2SM RA OVC006 16/16 A3035 RMK AO2
KOKV 241835Z AUTO 08003KT 3SM -RA OVC006 16/16 A3035 RMK AO2
KOKV 241815Z AUTO 09005KT 4SM BR OVC006 16/16 A3036 RMK AO2
KOKV 241755Z AUTO 08005KT 3SM BR OVC006 16/16 A3036 RMK AO2
KOKV 241735Z AUTO 08006KT 2SM BR OVC006 16/16 A3036 RMK AO2
KOKV 241715Z AUTO 00000KT 2SM BR OVC006 16/16 A3037 RMK AO2
KOKV 241655Z AUTO 09005KT 4SM BR OVC006 16/16 A3037 RMK AO2
KOKV 241635Z AUTO 07004KT 4SM BR OVC004 16/16 A3037 RMK AO2